createdAt,value
2023-03-25T00:01:21.291Z,98.54
2023-03-25T00:03:54.244Z,98.90
2023-03-25T00:06:23.205Z,98.89
2023-03-25T00:08:52.003Z,98.24
2023-03-25T00:11:21.260Z,98.53
2023-03-25T00:13:50.671Z,98.22
2023-03-25T00:16:20.049Z,97.97
2023-03-25T00:18:52.275Z,97.42
2023-03-25T00:21:21.845Z,97.99
2023-03-25T00:23:50.689Z,98.40
2023-03-25T00:26:19.871Z,98.66
2023-03-25T00:28:48.656Z,98.34
2023-03-25T00:31:17.759Z,99.07
2023-03-25T00:33:46.652Z,99.16
2023-03-25T00:36:15.693Z,98.57
2023-03-25T00:38:46.560Z,98.73
2023-03-25T00:41:26.414Z,99.29
2023-03-25T00:43:59.945Z,98.79
2023-03-25T00:46:33.620Z,98.43
2023-03-25T00:49:03.080Z,99.21
2023-03-25T00:51:34.816Z,98.36
2023-03-25T00:54:23.146Z,98.35
2023-03-25T00:56:54.276Z,99.45
2023-03-25T00:59:23.575Z,98.66
2023-03-25T01:01:57.880Z,99.11
2023-03-25T01:04:31.324Z,97.99
2023-03-25T01:07:04.054Z,97.95
2023-03-25T01:09:37.755Z,98.67
2023-03-25T01:12:11.214Z,98.77
2023-03-25T01:14:47.076Z,99.01
2023-03-25T01:17:18.637Z,98.79
2023-03-25T01:19:55.451Z,99.37
2023-03-25T01:22:29.406Z,98.39
2023-03-25T01:25:02.804Z,99.24
2023-03-25T01:27:35.386Z,99.32
2023-03-25T01:30:10.058Z,99.41
2023-03-25T01:32:43.490Z,100.00
2023-03-25T01:35:17.642Z,99.31
2023-03-25T01:37:57.535Z,98.99
2023-03-25T01:40:32.468Z,99.19
2023-03-25T01:43:06.524Z,98.99
2023-03-25T01:45:40.835Z,98.73
2023-03-25T01:48:19.016Z,98.78
2023-03-25T01:51:02.970Z,99.12
2023-03-25T01:53:37.438Z,99.46
2023-03-25T01:56:12.126Z,98.76
2023-03-25T01:58:47.771Z,99.09
2023-03-25T02:01:25.730Z,98.59
2023-03-25T02:04:05.968Z,98.57
2023-03-25T02:06:59.819Z,98.41
2023-03-25T02:09:35.104Z,98.26
2023-03-25T02:12:12.303Z,97.37
2023-03-25T02:14:45.265Z,97.66
2023-03-25T02:17:27.731Z,97.32
2023-03-25T02:20:36.305Z,97.27
2023-03-25T02:23:30.940Z,97.57
2023-03-25T02:26:18.674Z,97.47
2023-03-25T02:28:55.257Z,97.27
2023-03-25T02:32:14.404Z,97.27
2023-03-25T02:35:04.683Z,97.35
2023-03-25T02:38:01.103Z,97.23
2023-03-25T02:40:50.422Z,97.88
2023-03-25T02:43:42.495Z,97.33
2023-03-25T02:46:16.876Z,96.80
2023-03-25T02:49:09.628Z,97.12
2023-03-25T02:52:04.532Z,97.00
2023-03-25T02:54:37.947Z,96.97
2023-03-25T02:57:09.311Z,96.53
2023-03-25T02:59:41.509Z,96.84
2023-03-25T03:02:12.450Z,96.12
2023-03-25T03:04:53.624Z,95.90
2023-03-25T03:07:33.255Z,95.58
2023-03-25T03:10:24.441Z,95.73
2023-03-25T03:12:58.830Z,95.24
2023-03-25T03:15:42.546Z,94.82
2023-03-25T03:18:43.174Z,94.51
2023-03-25T03:21:24.197Z,94.03
2023-03-25T03:24:09.013Z,94.14
2023-03-25T03:26:59.970Z,94.42
2023-03-25T03:29:47.657Z,93.54
2023-03-25T03:32:44.409Z,94.11
2023-03-25T03:35:20.214Z,92.99
2023-03-25T03:37:59.256Z,92.71
2023-03-25T03:40:31.549Z,91.95
2023-03-25T03:43:13.445Z,91.13
2023-03-25T03:45:47.518Z,91.54
2023-03-25T03:49:27.494Z,91.03
2023-03-25T03:52:08.115Z,90.52
2023-03-25T03:54:54.601Z,90.45
2023-03-25T03:57:33.631Z,89.57
2023-03-25T04:00:19.280Z,89.57
2023-03-25T04:03:10.090Z,88.18
2023-03-25T04:05:40.729Z,87.69
2023-03-25T04:08:22.294Z,86.13
2023-03-25T04:11:00.112Z,85.48
2023-03-25T04:13:37.611Z,85.36
2023-03-25T04:16:08.328Z,85.06
2023-03-25T04:18:37.586Z,84.20
2023-03-25T04:21:06.690Z,83.25
2023-03-25T04:23:35.815Z,82.75
2023-03-25T04:26:04.874Z,80.52
2023-03-25T04:28:33.932Z,80.39
2023-03-25T04:31:06.397Z,77.93
2023-03-25T04:33:36.899Z,77.92
2023-03-25T04:36:07.723Z,77.78
2023-03-25T04:38:38.623Z,75.98
2023-03-25T04:41:09.458Z,77.00
2023-03-25T04:43:40.188Z,78.09
2023-03-25T04:46:15.094Z,76.38
2023-03-25T04:48:46.118Z,77.02
2023-03-25T04:51:17.010Z,78.45
2023-03-25T04:53:45.943Z,78.64
2023-03-25T04:56:17.845Z,80.87
2023-03-25T04:58:47.675Z,81.33
2023-03-25T05:01:31.514Z,81.72
2023-03-25T05:04:06.513Z,81.40
2023-03-25T05:06:39.406Z,81.13
2023-03-25T05:09:12.434Z,81.22
2023-03-25T05:11:42.818Z,80.32
2023-03-25T05:14:13.003Z,80.14
2023-03-25T05:16:42.508Z,77.74
2023-03-25T05:19:11.533Z,77.30
2023-03-25T05:21:42.143Z,76.37
2023-03-25T05:24:13.033Z,76.15
2023-03-25T05:26:43.561Z,76.38
2023-03-25T05:29:15.924Z,76.09
2023-03-25T05:31:47.027Z,76.70
2023-03-25T05:34:17.967Z,77.22
2023-03-25T05:36:47.234Z,76.58
2023-03-25T05:39:16.210Z,75.96
2023-03-25T05:41:46.723Z,75.74
2023-03-25T05:44:15.812Z,76.54
2023-03-25T05:46:45.045Z,75.70
2023-03-25T05:49:14.216Z,76.03
2023-03-25T05:51:43.031Z,75.98
2023-03-25T05:54:12.251Z,76.43
2023-03-25T05:56:42.412Z,75.64
2023-03-25T05:59:11.414Z,75.45
2023-03-25T06:01:40.285Z,75.60
2023-03-25T06:04:10.993Z,75.20
2023-03-25T06:06:40.738Z,75.11
2023-03-25T06:09:09.815Z,75.86
2023-03-25T06:11:41.971Z,75.52
2023-03-25T06:14:11.336Z,74.94
2023-03-25T06:16:40.483Z,74.40
2023-03-25T06:19:10.527Z,74.32
2023-03-25T06:21:39.803Z,74.67
2023-03-25T06:24:09.303Z,74.71
2023-03-25T06:26:38.149Z,74.81
2023-03-25T06:29:07.112Z,75.25
2023-03-25T06:31:35.974Z,74.25
2023-03-25T06:34:05.146Z,74.20
2023-03-25T06:36:35.649Z,73.04
2023-03-25T06:39:06.351Z,73.59
2023-03-25T06:41:37.115Z,71.99
2023-03-25T06:44:26.446Z,72.61
2023-03-25T06:47:13.653Z,70.87
2023-03-25T06:49:47.694Z,70.73
2023-03-25T06:52:28.843Z,71.81
2023-03-25T06:54:58.059Z,71.89
2023-03-25T06:57:26.939Z,73.20
2023-03-25T06:59:55.893Z,70.52
2023-03-25T07:02:24.717Z,71.01
2023-03-25T07:04:53.734Z,70.16
2023-03-25T07:07:22.505Z,71.18
2023-03-25T07:09:56.991Z,68.77
2023-03-25T07:12:26.001Z,69.00
2023-03-25T07:14:59.404Z,68.45
2023-03-25T07:17:30.089Z,69.36
2023-03-25T07:20:00.009Z,69.92
2023-03-25T07:22:28.960Z,69.53
2023-03-25T07:24:59.413Z,68.85
2023-03-25T07:27:29.190Z,70.69
2023-03-25T07:30:07.972Z,68.89
2023-03-25T07:32:38.157Z,67.72
2023-03-25T07:35:10.261Z,69.31
2023-03-25T07:37:39.381Z,67.37
2023-03-25T07:40:08.850Z,70.30
2023-03-25T07:42:39.487Z,69.86
2023-03-25T07:45:18.503Z,71.06
2023-03-25T07:47:51.213Z,69.61
2023-03-25T07:50:24.425Z,70.66
2023-03-25T07:52:54.710Z,69.88
2023-03-25T07:55:23.552Z,69.29
2023-03-25T07:57:52.953Z,67.98
2023-03-25T08:00:22.179Z,68.66
2023-03-25T08:02:51.582Z,70.18
2023-03-25T08:05:30.012Z,68.77
2023-03-25T08:08:02.099Z,67.97
2023-03-25T08:10:31.407Z,68.37
2023-03-25T08:13:00.581Z,66.92
2023-03-25T08:16:07.857Z,67.71
2023-03-25T08:18:37.059Z,67.74
2023-03-25T08:21:09.694Z,68.34
2023-03-25T08:23:39.113Z,67.18
2023-03-25T08:26:08.060Z,67.21
2023-03-25T08:28:37.052Z,69.88
2023-03-25T08:31:09.870Z,69.15
2023-03-25T08:33:41.849Z,67.69
2023-03-25T08:36:15.026Z,69.70
2023-03-25T08:38:44.020Z,68.66
2023-03-25T08:41:12.796Z,69.61
2023-03-25T08:43:43.545Z,69.91
2023-03-25T08:46:14.345Z,69.61
2023-03-25T08:48:45.060Z,71.64
2023-03-25T08:51:13.995Z,71.15
2023-03-25T08:53:42.759Z,70.76
2023-03-25T08:56:12.400Z,70.23
2023-03-25T08:58:41.696Z,69.86
2023-03-25T09:01:10.698Z,71.19
2023-03-25T09:03:39.644Z,70.80
2023-03-25T09:06:10.071Z,70.79
2023-03-25T09:08:39.122Z,72.04
2023-03-25T09:11:08.259Z,71.73
2023-03-25T09:13:37.307Z,70.43
2023-03-25T09:16:06.736Z,70.13
2023-03-25T09:18:37.725Z,71.52
2023-03-25T09:21:07.155Z,69.94
2023-03-25T09:23:36.225Z,70.70
2023-03-25T09:26:06.214Z,69.14
2023-03-25T09:28:35.274Z,69.01
2023-03-25T09:31:04.004Z,70.41
2023-03-25T09:33:33.328Z,70.25
2023-03-25T09:36:03.144Z,70.36
2023-03-25T09:38:32.070Z,71.12
2023-03-25T09:41:06.560Z,70.31
2023-03-25T09:44:04.140Z,69.64
2023-03-25T09:46:34.048Z,70.43
2023-03-25T09:49:03.161Z,69.99
2023-03-25T09:51:37.624Z,69.77
2023-03-25T09:54:28.747Z,70.39
2023-03-25T09:57:03.664Z,70.72
2023-03-25T09:59:50.064Z,69.99
2023-03-25T10:02:49.689Z,69.72
2023-03-25T10:05:19.840Z,70.59
2023-03-25T10:08:14.454Z,69.13
2023-03-25T10:11:09.135Z,69.29
2023-03-25T10:13:38.111Z,68.01
2023-03-25T10:16:27.174Z,70.77
2023-03-25T10:19:52.127Z,70.45
2023-03-25T10:22:33.731Z,69.17
2023-03-25T10:25:06.567Z,69.63
2023-03-25T10:27:45.726Z,69.42
2023-03-25T10:30:16.789Z,69.88
2023-03-25T10:32:50.760Z,70.45
2023-03-25T10:35:44.335Z,70.39
2023-03-25T10:38:21.647Z,70.84
2023-03-25T10:40:54.223Z,70.34
2023-03-25T10:43:31.230Z,70.06
2023-03-25T10:46:28.766Z,70.44
2023-03-25T10:48:57.867Z,71.14
2023-03-25T10:51:37.195Z,71.25
2023-03-25T10:54:06.493Z,71.60
2023-03-25T10:56:39.483Z,71.72
2023-03-25T10:59:26.815Z,72.17
2023-03-25T11:01:57.182Z,72.70
2023-03-25T11:04:37.929Z,73.29
2023-03-25T11:07:19.092Z,72.08
2023-03-25T11:09:48.361Z,72.58
2023-03-25T11:12:30.160Z,73.08
2023-03-25T11:15:07.554Z,72.53
2023-03-25T11:17:36.842Z,72.44
2023-03-25T11:20:18.571Z,72.75
2023-03-25T11:22:52.330Z,72.41
2023-03-25T11:25:32.513Z,72.34
2023-03-25T11:28:06.445Z,72.16
2023-03-25T11:30:35.398Z,72.32
2023-03-25T11:33:15.603Z,71.45
2023-03-25T11:35:47.618Z,71.27
2023-03-25T11:38:30.193Z,72.19
2023-03-25T11:40:59.792Z,71.67
2023-03-25T11:43:37.724Z,70.91
2023-03-25T11:46:18.309Z,71.46
2023-03-25T11:48:48.238Z,71.25
2023-03-25T11:51:23.634Z,71.13
2023-03-25T11:54:06.608Z,71.10
2023-03-25T11:56:43.936Z,71.30
2023-03-25T11:59:39.053Z,70.81
2023-03-25T12:02:30.850Z,70.56
2023-03-25T12:05:13.368Z,71.25
2023-03-25T12:07:48.312Z,70.29
2023-03-25T12:10:49.301Z,70.24
2023-03-25T12:13:56.778Z,70.29
2023-03-25T12:16:45.292Z,70.90
2023-03-25T12:19:27.229Z,70.68
2023-03-25T12:22:26.971Z,70.38
2023-03-25T12:25:21.987Z,70.97
2023-03-25T12:28:09.757Z,71.13
2023-03-25T12:30:47.665Z,71.77
2023-03-25T12:33:48.988Z,71.65
2023-03-25T12:36:21.113Z,72.24
2023-03-25T12:39:39.441Z,72.42
2023-03-25T12:42:34.490Z,72.11
2023-03-25T12:45:33.522Z,72.33
2023-03-25T12:48:32.363Z,72.50
2023-03-25T12:51:01.628Z,72.97
2023-03-25T12:53:47.751Z,72.91
2023-03-25T12:56:33.656Z,73.38
2023-03-25T12:59:21.141Z,74.21
2023-03-25T13:02:05.175Z,76.10
2023-03-25T13:04:42.858Z,76.60
2023-03-25T13:07:17.722Z,76.97
2023-03-25T13:10:18.055Z,77.11
2023-03-25T13:12:59.709Z,78.25
2023-03-25T13:15:44.185Z,78.92
2023-03-25T13:19:06.545Z,79.11
2023-03-25T13:21:41.532Z,79.19
2023-03-25T13:24:19.481Z,79.32
2023-03-25T13:26:51.129Z,79.98
2023-03-25T13:29:46.883Z,80.43
2023-03-25T13:32:24.564Z,80.27
2023-03-25T13:35:08.207Z,80.70
2023-03-25T13:37:47.792Z,80.88
2023-03-25T13:40:28.776Z,81.17
2023-03-25T13:43:04.682Z,81.66
2023-03-25T13:45:57.798Z,82.28
2023-03-25T13:48:30.510Z,83.26
2023-03-25T13:51:04.303Z,83.78
2023-03-25T13:53:48.910Z,84.36
2023-03-25T13:57:03.331Z,84.57
2023-03-25T13:59:57.594Z,84.73
2023-03-25T14:02:52.548Z,84.80
2023-03-25T14:06:22.986Z,85.13
2023-03-25T14:09:25.483Z,85.44
2023-03-25T14:12:10.354Z,85.95
2023-03-25T14:14:50.249Z,86.26
2023-03-25T14:17:23.719Z,86.36
2023-03-25T14:19:56.485Z,86.68
2023-03-25T14:22:32.854Z,86.70
2023-03-25T14:25:02.148Z,87.00
2023-03-25T14:27:36.546Z,87.07
2023-03-25T14:30:23.076Z,87.37
2023-03-25T14:32:55.346Z,88.26
2023-03-25T14:35:36.766Z,89.42
2023-03-25T14:38:08.828Z,89.86
2023-03-25T14:40:54.774Z,90.14
2023-03-25T14:43:33.996Z,90.71
2023-03-25T14:46:14.050Z,90.72
2023-03-25T14:49:06.771Z,89.21
2023-03-25T14:51:42.482Z,89.73
2023-03-25T14:54:36.874Z,89.50
2023-03-25T14:57:30.874Z,89.05
2023-03-25T15:00:18.294Z,88.05
2023-03-25T15:02:54.131Z,86.87
2023-03-25T15:05:28.596Z,86.51
2023-03-25T15:08:12.691Z,85.76
2023-03-25T15:11:04.273Z,85.21
2023-03-25T15:13:56.229Z,83.67
2023-03-25T15:16:49.196Z,83.34
2023-03-25T15:19:23.817Z,82.57
2023-03-25T15:21:59.288Z,81.69
2023-03-25T15:24:34.355Z,82.50
2023-03-25T15:27:32.362Z,81.74
2023-03-25T15:30:26.036Z,81.70
2023-03-25T15:33:31.890Z,81.56
2023-03-25T15:36:20.905Z,81.85
2023-03-25T15:39:22.103Z,82.56
2023-03-25T15:42:18.970Z,81.89
2023-03-25T15:45:02.855Z,82.63
2023-03-25T15:47:55.524Z,83.71
2023-03-25T15:50:54.221Z,83.16
2023-03-25T15:53:42.802Z,82.68
2023-03-25T15:56:15.673Z,82.59
2023-03-25T15:58:56.567Z,83.49
2023-03-25T16:01:32.223Z,84.02
2023-03-25T16:04:41.676Z,84.39
2023-03-25T16:07:16.290Z,85.46
2023-03-25T16:09:50.063Z,85.22
2023-03-25T16:12:25.083Z,84.16
2023-03-25T16:14:54.528Z,84.33
2023-03-25T16:17:32.115Z,83.89
2023-03-25T16:20:02.666Z,83.69
2023-03-25T16:22:34.400Z,84.85
2023-03-25T16:25:15.210Z,85.13
2023-03-25T16:27:53.148Z,84.57
2023-03-25T16:30:38.804Z,84.72
2023-03-25T16:33:14.658Z,84.43
2023-03-25T16:35:50.753Z,85.05
2023-03-25T16:38:26.300Z,85.27
2023-03-25T16:41:14.816Z,85.10
2023-03-25T16:43:44.379Z,84.93
2023-03-25T16:46:16.822Z,85.02
2023-03-25T16:48:55.203Z,84.67
2023-03-25T16:51:33.090Z,85.05
2023-03-25T16:54:02.327Z,86.81
2023-03-25T16:56:37.624Z,86.74
2023-03-25T16:59:09.657Z,86.93
2023-03-25T17:01:43.369Z,85.74
2023-03-25T17:04:19.572Z,86.67
2023-03-25T17:06:55.656Z,86.44
2023-03-25T17:09:40.902Z,86.37
2023-03-25T17:12:21.502Z,85.96
2023-03-25T17:14:52.692Z,86.34
2023-03-25T17:17:24.453Z,86.30
2023-03-25T17:19:54.036Z,85.91
2023-03-25T17:22:29.820Z,85.84
2023-03-25T17:25:00.612Z,85.62
2023-03-25T17:27:37.072Z,86.31
2023-03-25T17:30:30.726Z,86.41
2023-03-25T17:33:11.592Z,86.55
2023-03-25T17:35:42.802Z,86.29
2023-03-25T17:38:29.969Z,85.79
2023-03-25T17:41:01.249Z,86.16
2023-03-25T17:43:33.534Z,85.84
2023-03-25T17:46:03.970Z,86.53
2023-03-25T17:48:33.016Z,86.33
2023-03-25T17:51:02.305Z,87.33
2023-03-25T17:53:31.845Z,88.04
2023-03-25T17:56:04.239Z,87.41
2023-03-25T17:58:33.265Z,87.47
2023-03-25T18:01:02.377Z,88.24
2023-03-25T18:03:33.681Z,88.69
2023-03-25T18:06:02.599Z,88.33
2023-03-25T18:08:31.851Z,89.16
2023-03-25T18:11:01.020Z,89.34
2023-03-25T18:13:29.910Z,89.46
2023-03-25T18:15:59.243Z,89.74
2023-03-25T18:18:28.319Z,90.29
2023-03-25T18:20:57.326Z,90.73
2023-03-25T18:23:26.131Z,91.31
2023-03-25T18:25:55.241Z,91.42
2023-03-25T18:28:25.815Z,91.50
2023-03-25T18:30:56.348Z,91.62
2023-03-25T18:33:25.541Z,91.84
2023-03-25T18:35:54.512Z,91.53
2023-03-25T18:38:25.805Z,91.96
2023-03-25T18:40:56.873Z,91.99
2023-03-25T18:43:25.914Z,92.20
2023-03-25T18:45:55.078Z,91.78
2023-03-25T18:48:24.420Z,91.50
2023-03-25T18:50:57.714Z,91.62
2023-03-25T18:53:29.270Z,91.72
2023-03-25T18:56:01.755Z,91.09
2023-03-25T18:58:33.828Z,91.67
2023-03-25T19:01:05.025Z,90.85
2023-03-25T19:03:40.432Z,91.17
2023-03-25T19:06:16.075Z,91.39
2023-03-25T19:08:46.455Z,92.22
2023-03-25T19:11:21.614Z,92.54
2023-03-25T19:13:52.394Z,92.13
2023-03-25T19:16:21.978Z,91.65
2023-03-25T19:18:50.776Z,91.21
2023-03-25T19:21:20.740Z,91.57
2023-03-25T19:23:49.598Z,91.10
2023-03-25T19:26:18.587Z,91.49
2023-03-25T19:28:47.269Z,92.01
2023-03-25T19:31:17.387Z,92.32
2023-03-25T19:33:46.561Z,91.38
2023-03-25T19:36:17.634Z,91.88
2023-03-25T19:38:46.961Z,91.22
2023-03-25T19:41:17.276Z,91.53
2023-03-25T19:43:46.803Z,91.33
2023-03-25T19:46:15.824Z,90.97
2023-03-25T19:48:44.730Z,91.28
2023-03-25T19:51:13.653Z,90.95
2023-03-25T19:53:42.646Z,91.40
2023-03-25T19:56:14.792Z,91.25
2023-03-25T19:58:43.763Z,91.94
2023-03-25T20:01:13.095Z,91.51
2023-03-25T20:03:43.025Z,91.67
2023-03-25T20:06:11.983Z,91.87
2023-03-25T20:08:41.183Z,91.58
2023-03-25T20:11:12.827Z,92.87
2023-03-25T20:13:41.864Z,92.83
2023-03-25T20:16:10.899Z,92.30
2023-03-25T20:18:42.188Z,92.06
2023-03-25T20:21:12.694Z,92.59
2023-03-25T20:23:41.616Z,92.63
2023-03-25T20:26:10.443Z,92.48
2023-03-25T20:28:41.671Z,92.35
2023-03-25T20:31:22.655Z,92.38
2023-03-25T20:33:52.306Z,92.38
2023-03-25T20:36:22.497Z,92.30
2023-03-25T20:38:57.722Z,92.28
2023-03-25T20:41:27.747Z,91.72
2023-03-25T20:43:56.657Z,92.05
2023-03-25T20:46:29.173Z,91.81
2023-03-25T20:48:58.834Z,91.93
2023-03-25T20:51:27.573Z,92.11
2023-03-25T20:53:57.868Z,92.20
2023-03-25T20:56:27.109Z,91.88
2023-03-25T20:58:55.932Z,91.51
2023-03-25T21:01:24.996Z,91.68
2023-03-25T21:03:54.326Z,91.78
2023-03-25T21:06:26.671Z,91.38
2023-03-25T21:08:59.558Z,91.15
2023-03-25T21:11:32.392Z,91.34
2023-03-25T21:14:01.364Z,91.13
2023-03-25T21:16:30.248Z,90.80
2023-03-25T21:19:02.702Z,90.62
2023-03-25T21:21:32.166Z,90.28
2023-03-25T21:24:00.960Z,90.57
2023-03-25T21:26:29.840Z,90.36
2023-03-25T21:29:00.707Z,90.46
2023-03-25T21:31:30.303Z,90.29
2023-03-25T21:33:59.375Z,90.34
2023-03-25T21:36:30.717Z,90.11
2023-03-25T21:39:01.687Z,89.89
2023-03-25T21:41:31.507Z,90.21
2023-03-25T21:44:00.238Z,89.71
2023-03-25T21:46:29.409Z,90.11
2023-03-25T21:49:02.086Z,90.39
2023-03-25T21:51:33.226Z,90.40
2023-03-25T21:54:02.372Z,90.85
2023-03-25T21:56:35.595Z,91.14
2023-03-25T21:59:05.519Z,91.09
2023-03-25T22:01:34.483Z,90.78
2023-03-25T22:04:03.893Z,90.41
2023-03-25T22:06:35.981Z,90.24
2023-03-25T22:09:08.948Z,90.67
2023-03-25T22:11:41.491Z,91.38
2023-03-25T22:14:10.599Z,90.75
2023-03-25T22:16:39.513Z,90.93
2023-03-25T22:19:09.553Z,91.11
2023-03-25T22:21:38.425Z,91.04
2023-03-25T22:24:09.257Z,91.31
2023-03-25T22:26:43.285Z,91.65
2023-03-25T22:29:12.411Z,91.37
2023-03-25T22:31:41.928Z,91.63
2023-03-25T22:34:16.133Z,91.30
2023-03-25T22:36:50.998Z,91.36
2023-03-25T22:39:21.938Z,91.65
2023-03-25T22:41:50.907Z,91.79
2023-03-25T22:44:22.255Z,92.17
2023-03-25T22:46:52.356Z,91.56
2023-03-25T22:49:21.547Z,91.63
2023-03-25T22:51:50.485Z,92.13
2023-03-25T22:54:19.296Z,91.45
2023-03-25T22:56:48.399Z,91.65
2023-03-25T22:59:17.249Z,91.72
2023-03-25T23:01:46.297Z,91.80
2023-03-25T23:04:15.264Z,91.72
2023-03-25T23:06:47.048Z,91.44
2023-03-25T23:09:42.223Z,91.75
2023-03-25T23:12:13.526Z,91.90
2023-03-25T23:14:48.583Z,91.84
2023-03-25T23:17:17.555Z,91.74
2023-03-25T23:19:46.998Z,92.44
2023-03-25T23:22:18.269Z,91.96
2023-03-25T23:24:47.161Z,92.50
2023-03-25T23:27:16.259Z,93.91
2023-03-25T23:29:46.031Z,92.67
2023-03-25T23:32:15.532Z,94.58
2023-03-25T23:34:44.469Z,93.74
2023-03-25T23:37:13.285Z,92.95
2023-03-25T23:39:42.993Z,93.01
2023-03-25T23:42:11.687Z,92.66
2023-03-25T23:44:40.612Z,93.44
2023-03-25T23:47:09.354Z,93.74
2023-03-25T23:49:39.275Z,93.44
2023-03-25T23:52:12.141Z,93.20
2023-03-25T23:54:41.591Z,94.57
2023-03-25T23:57:10.558Z,94.26
2023-03-25T23:59:39.615Z,94.58
